Česky Dansk Deutsch English Español Suomi Français Magyar Italiano Nederlands norsk Polski Português svenska Türkçe

 

Het Weer

Niederrhein (Duitsland)

12:20, 22 augustus 2016 (CET)

NWNNE
WE
SWSSE
Home            
Niederrhein Laarbruch Kalkar Volkel Brueggen Monchengladbach Eindhoven Deelen Duesseldorf Essen Kleine Brogel Geilenkirchen Maastricht Airport Zuid Limburg Weelde Military Soesterberg Gilze-Rijen De Bilt Genk Aachen / Merzbruck Twenthe Noervenich Schaffen Dortmund / Wickede

Om een weerknop op uw website of weblog te plaatsen, copieer onderstaande code en plak die in uw pagina. In het eerste vakje staat HTML-code, in het tweede vakje UBB-code.


Add to Google

Details

Wind speed:3 bf, 9 kn, 4.6 m/s, 10.4 miles/h, 16.7 km/h
Wind direction:S, 180° - WSW, 240°
Visibility: 7000 m, 7.0 km, 22966 ft, 4.3 miles
Temperature:17°C, 63°F
Dew-point:17°C, 63°F
Atmospheric pressure:1024 hPa, 768.1 mmHg, 30.24 inHg, 1.011 atm
Relative humidity:100.0 %
METAR:EDLV 221020Z 22009KT 180V240 7000 NSC 17/17 Q1024

Snelkoppelingen

Actuele weersinformatie van de hele wereld. Voeg locaties toe met het plus (+) symbool. Deze snelkoppelingen kunnen worden toegevoegd aan Google.

Lid van de Technetium groep

website free tracking
StatCounter NetStat W3C Validator

25-09-2017 07:14:36
astro.technetium.be money.technetium.be phote.technetium.be tafeltennistafel.technetium.be www.ligfiets.net